Time;durP1;ratioP1;P1;durP2;ratioP2;P2;SDS_P1;SDS_P2;PMS_P1;PMS_P2;Temp;Humidity;BMP_temperature;BMP_pressure;BME280_temperature;BME280_humidity;BME280_pressure;Samples;Min_cycle;Max_cycle;Signal;HPM_P1;HPM_P2
2022/09/01 00:01:19;;;;;;;2.67;0.88;;;;;;;;;;4952670;28;20099;-74
2022/09/01 00:03:47;;;;;;;2.10;1.00;;;;;;;;;;4951314;29;20035;-76
2022/09/01 00:06:14;;;;;;;1.38;1.08;;;;;;;;;;4952947;28;20023;-75
2022/09/01 00:08:40;;;;;;;4.18;1.35;;;;;;;;;;4954287;28;20035;-76
2022/09/01 00:13:34;;;;;;;1.92;1.40;;;;;;;;;;4957896;29;20070;-76
2022/09/01 00:16:02;;;;;;;1.42;1.17;;;;;;;;;;4975023;28;20019;-76
2022/09/01 00:18:29;;;;;;;2.58;1.15;;;;;;;;;;4965102;28;20503;-75
2022/09/01 00:20:58;;;;;;;1.48;0.85;;;;;;;;;;4961984;29;20035;-75
2022/09/01 00:23:24;;;;;;;2.55;0.88;;;;;;;;;;4958496;28;20090;-75
2022/09/01 00:25:50;;;;;;;1.95;1.00;;;;;;;;;;4955768;28;20023;-75
2022/09/01 00:28:16;;;;;;;1.63;0.85;;;;;;;;;;4958090;28;20050;-76
2022/09/01 00:30:42;;;;;;;3.63;1.40;;;;;;;;;;4957521;29;20035;-76
2022/09/01 00:33:08;;;;;;;1.52;0.88;;;;;;;;;;4955674;28;20107;-76
2022/09/01 00:35:34;;;;;;;2.67;1.15;;;;;;;;;;4955632;28;20122;-76
2022/09/01 00:38:00;;;;;;;1.05;0.90;;;;;;;;;;4957832;28;20035;-76
2022/09/01 00:40:26;;;;;;;3.97;1.10;;;;;;;;;;4964732;28;20038;-76
2022/09/01 00:42:52;;;;;;;2.47;1.35;;;;;;;;;;4963239;28;20035;-75
2022/09/01 00:45:20;;;;;;;3.17;1.00;;;;;;;;;;4959623;28;20027;-76
2022/09/01 00:47:46;;;;;;;3.88;0.95;;;;;;;;;;4956150;29;20051;-76
2022/09/01 00:50:14;;;;;;;2.85;1.20;;;;;;;;;;4955613;28;20027;-75
2022/09/01 00:52:51;;;;;;;2.80;1.30;;;;;;;;;;4962019;28;20031;-75
2022/09/01 00:55:26;;;;;;;2.42;1.10;;;;;;;;;;4975628;28;20026;-75
2022/09/01 00:57:52;;;;;;;5.30;1.15;;;;;;;;;;4963101;28;20063;-77
2022/09/01 01:00:19;;;;;;;2.38;1.10;;;;;;;;;;4953379;28;20034;-76
2022/09/01 01:02:47;;;;;;;3.80;1.63;;;;;;;;;;4952400;28;20046;-76
2022/09/01 01:05:14;;;;;;;1.92;1.20;;;;;;;;;;4961037;29;20046;-75
2022/09/01 01:07:41;;;;;;;4.85;1.10;;;;;;;;;;4962020;29;20036;-76
2022/09/01 01:10:09;;;;;;;2.38;1.30;;;;;;;;;;4955966;29;20101;-76
2022/09/01 01:12:36;;;;;;;4.18;1.38;;;;;;;;;;4950299;29;20059;-75
2022/09/01 01:15:05;;;;;;;2.60;1.13;;;;;;;;;;4949568;28;20023;-77
2022/09/01 01:17:31;;;;;;;1.80;1.13;;;;;;;;;;4950845;29;20019;-77
2022/09/01 01:23:07;;;;;;;2.35;1.15;;;;;;;;;;4951101;28;20085;-76
2022/09/01 01:25:33;;;;;;;2.58;1.30;;;;;;;;;;4953930;28;20015;-77
2022/09/01 01:28:11;;;;;;;3.85;1.40;;;;;;;;;;4955305;29;20024;-77
2022/09/01 01:30:38;;;;;;;1.80;1.20;;;;;;;;;;4961497;29;20067;-76
2022/09/01 01:33:05;;;;;;;2.28;1.17;;;;;;;;;;4962581;28;20027;-74
2022/09/01 01:35:32;;;;;;;3.72;0.80;;;;;;;;;;4957906;29;20415;-78
2022/09/01 01:37:58;;;;;;;2.88;1.23;;;;;;;;;;4953765;29;20020;-75
2022/09/01 01:40:24;;;;;;;4.32;1.30;;;;;;;;;;4953892;29;20023;-77
2022/09/01 01:42:51;;;;;;;1.40;1.00;;;;;;;;;;4953309;28;20031;-75
2022/09/01 01:45:19;;;;;;;1.70;1.02;;;;;;;;;;4954019;29;20042;-77
2022/09/01 01:47:51;;;;;;;2.72;1.20;;;;;;;;;;4953759;29;20035;-77
2022/09/01 01:50:18;;;;;;;3.22;1.48;;;;;;;;;;4953859;29;20024;-76
2022/09/01 01:52:44;;;;;;;4.13;2.50;;;;;;;;;;4957388;28;20019;-76
2022/09/01 01:55:11;;;;;;;3.42;1.73;;;;;;;;;;4956503;28;20396;-76
2022/09/01 01:57:38;;;;;;;2.25;1.20;;;;;;;;;;4955970;28;20027;-76
2022/09/01 02:00:04;;;;;;;2.80;1.20;;;;;;;;;;4958459;28;20027;-77
2022/09/01 02:02:30;;;;;;;5.00;1.30;;;;;;;;;;4957880;28;20038;-76
2022/09/01 02:04:57;;;;;;;4.68;1.45;;;;;;;;;;4960395;29;20102;-75
2022/09/01 02:07:23;;;;;;;2.45;1.45;;;;;;;;;;4954191;29;20019;-76
2022/09/01 02:09:49;;;;;;;2.58;1.48;;;;;;;;;;4954636;28;20034;-76
2022/09/01 02:12:18;;;;;;;2.30;1.35;;;;;;;;;;4956525;28;20067;-76
2022/09/01 02:14:44;;;;;;;2.45;1.33;;;;;;;;;;4954115;29;20130;-79
2022/09/01 02:17:10;;;;;;;1.23;1.10;;;;;;;;;;4954183;29;20101;-76
2022/09/01 02:19:41;;;;;;;4.40;1.30;;;;;;;;;;4952363;28;20027;-76
2022/09/01 02:22:09;;;;;;;2.15;1.35;;;;;;;;;;4954431;28;20031;-77
2022/09/01 02:24:36;;;;;;;4.95;1.33;;;;;;;;;;5002468;28;20025;-77
2022/09/01 02:27:02;;;;;;;4.07;1.45;;;;;;;;;;5055416;28;20033;-77
2022/09/01 02:29:28;;;;;;;2.80;1.60;;;;;;;;;;5056089;28;20033;-77
2022/09/01 02:31:54;;;;;;;2.42;1.40;;;;;;;;;;5055441;28;20027;-77
2022/09/01 02:34:22;;;;;;;2.53;1.10;;;;;;;;;;5055098;28;20529;-76
2022/09/01 02:36:50;;;;;;;4.07;1.60;;;;;;;;;;5036692;28;20017;-75
2022/09/01 02:39:17;;;;;;;2.15;1.10;;;;;;;;;;5054919;28;20025;-76
2022/09/01 02:41:43;;;;;;;2.15;1.30;;;;;;;;;;5054688;28;20021;-76
2022/09/01 02:44:13;;;;;;;1.63;1.20;;;;;;;;;;5055107;28;20489;-76
2022/09/01 02:46:43;;;;;;;3.95;1.35;;;;;;;;;;5056000;28;20536;-76
2022/09/01 02:49:16;;;;;;;1.52;1.20;;;;;;;;;;5055475;28;20035;-76
2022/09/01 02:51:43;;;;;;;2.63;1.50;;;;;;;;;;5036922;28;20032;-77
2022/09/01 02:54:09;;;;;;;3.95;1.58;;;;;;;;;;5055022;28;20232;-77
2022/09/01 02:56:35;;;;;;;2.05;1.33;;;;;;;;;;5055411;28;20421;-76
2022/09/01 02:59:02;;;;;;;1.80;1.08;;;;;;;;;;5054836;28;20048;-77
2022/09/01 03:01:29;;;;;;;3.88;1.75;;;;;;;;;;5054908;28;20091;-77
2022/09/01 03:03:58;;;;;;;5.20;1.50;;;;;;;;;;5054139;28;20071;-75
2022/09/01 03:06:25;;;;;;;2.80;1.67;;;;;;;;;;5053760;28;20024;-75
2022/09/01 03:08:52;;;;;;;2.85;1.58;;;;;;;;;;5036127;28;20031;-78
2022/09/01 03:11:20;;;;;;;1.67;1.27;;;;;;;;;;5053834;28;20056;-75
2022/09/01 03:13:46;;;;;;;2.83;1.30;;;;;;;;;;5054559;28;20025;-76
2022/09/01 03:16:12;;;;;;;3.42;1.42;;;;;;;;;;5035976;28;20492;-75
2022/09/01 03:18:38;;;;;;;3.53;1.70;;;;;;;;;;5053819;28;20022;-75
2022/09/01 03:21:05;;;;;;;6.45;1.60;;;;;;;;;;5054205;28;20105;-76
2022/09/01 03:23:32;;;;;;;6.40;1.80;;;;;;;;;;5054166;28;20032;-75
2022/09/01 03:25:59;;;;;;;7.65;2.15;;;;;;;;;;5053167;28;20021;-75
2022/09/01 03:28:25;;;;;;;3.97;2.28;;;;;;;;;;5053445;28;20025;-75
2022/09/01 03:30:55;;;;;;;3.25;1.58;;;;;;;;;;5053312;28;20386;-76
2022/09/01 03:33:22;;;;;;;4.30;1.83;;;;;;;;;;5053280;28;20028;-76
2022/09/01 03:35:49;;;;;;;3.13;1.60;;;;;;;;;;5052891;28;20488;-77
2022/09/01 03:38:19;;;;;;;1.83;1.17;;;;;;;;;;5053580;28;20025;-75
2022/09/01 03:40:46;;;;;;;2.65;1.95;;;;;;;;;;5035467;28;20025;-75
2022/09/01 03:43:12;;;;;;;2.47;1.40;;;;;;;;;;5058668;28;20055;-75
2022/09/01 03:45:39;;;;;;;5.00;1.50;;;;;;;;;;5053159;28;20049;-75
2022/09/01 03:48:07;;;;;;;2.53;1.27;;;;;;;;;;5053545;28;20025;-77
2022/09/01 03:50:35;;;;;;;2.00;1.50;;;;;;;;;;5054801;28;20021;-76
2022/09/01 03:53:01;;;;;;;8.15;1.60;;;;;;;;;;5037711;28;20021;-73
2022/09/01 03:55:29;;;;;;;4.53;2.20;;;;;;;;;;5054823;28;20025;-75
2022/09/01 03:57:56;;;;;;;12.48;4.88;;;;;;;;;;5059344;28;20048;-75
2022/09/01 04:00:24;;;;;;;6.40;3.35;;;;;;;;;;5055456;28;20029;-75
2022/09/01 04:02:51;;;;;;;6.65;3.35;;;;;;;;;;5052952;28;20029;-76
2022/09/01 04:05:20;;;;;;;6.75;2.20;;;;;;;;;;5052719;28;20110;-76
2022/09/01 04:07:46;;;;;;;4.72;2.00;;;;;;;;;;5053167;28;20102;-77
2022/09/01 04:10:13;;;;;;;3.80;2.00;;;;;;;;;;5052678;28;20021;-76
2022/09/01 04:12:38;;;;;;;7.78;2.78;;;;;;;;;;5052885;28;20292;-76
2022/09/01 04:15:06;;;;;;;7.93;2.75;;;;;;;;;;5052668;28;20359;-75
2022/09/01 04:20:20;;;;;;;4.60;2.17;;;;;;;;;;5011633;28;20040;-75
2022/09/01 04:22:48;;;;;;;5.13;2.28;;;;;;;;;;5052352;28;20031;-74
2022/09/01 04:25:14;;;;;;;5.28;2.50;;;;;;;;;;5052775;28;20043;-75
2022/09/01 04:27:40;;;;;;;6.35;2.85;;;;;;;;;;5053001;28;20029;-75
2022/09/01 04:30:09;;;;;;;6.50;2.17;;;;;;;;;;5061512;28;20029;-76
2022/09/01 04:32:36;;;;;;;6.18;2.10;;;;;;;;;;5056442;28;20021;-76
2022/09/01 04:35:03;;;;;;;6.22;2.35;;;;;;;;;;5072693;28;20076;-76
2022/09/01 04:37:29;;;;;;;6.03;2.20;;;;;;;;;;5046031;28;20025;-75
2022/09/01 04:39:57;;;;;;;3.50;2.08;;;;;;;;;;5065723;28;20047;-76
2022/09/01 04:42:24;;;;;;;4.22;2.17;;;;;;;;;;5062497;28;20108;-75
2022/09/01 04:44:52;;;;;;;6.10;2.95;;;;;;;;;;5044008;28;20546;-75
2022/09/01 04:47:18;;;;;;;7.30;2.50;;;;;;;;;;5042126;28;20104;-75
2022/09/01 04:49:46;;;;;;;5.03;2.60;;;;;;;;;;5049262;28;20085;-75
2022/09/01 04:52:12;;;;;;;6.32;2.22;;;;;;;;;;5060390;28;20460;-76
2022/09/01 04:54:38;;;;;;;7.65;3.20;;;;;;;;;;5041061;28;20052;-76
2022/09/01 04:57:08;;;;;;;3.78;2.50;;;;;;;;;;5058920;28;20025;-76
2022/09/01 04:59:34;;;;;;;5.05;2.33;;;;;;;;;;5053131;28;20021;-78
2022/09/01 05:02:11;;;;;;;4.63;2.42;;;;;;;;;;5065572;28;20036;-76
2022/09/01 05:04:40;;;;;;;7.22;3.78;;;;;;;;;;5045751;28;20067;-75
2022/09/01 05:07:13;;;;;;;5.32;2.65;;;;;;;;;;5056308;28;20113;-77
2022/09/01 05:10:01;;;;;;;13.90;3.88;;;;;;;;;;5046514;28;20041;-76
2022/09/01 05:12:28;;;;;;;17.00;4.65;;;;;;;;;;5048581;28;20040;-76
2022/09/01 05:14:54;;;;;;;15.45;4.53;;;;;;;;;;5034025;28;20029;-76
2022/09/01 05:17:24;;;;;;;10.68;3.20;;;;;;;;;;5072811;28;20029;-76
2022/09/01 05:19:50;;;;;;;5.22;2.83;;;;;;;;;;5060724;28;20028;-77
2022/09/01 05:22:20;;;;;;;9.68;3.28;;;;;;;;;;5060085;28;20025;-75
2022/09/01 05:24:47;;;;;;;9.07;3.05;;;;;;;;;;5054319;28;20029;-76
2022/09/01 05:27:14;;;;;;;4.97;3.20;;;;;;;;;;5053574;28;20048;-76
2022/09/01 05:29:40;;;;;;;6.90;2.67;;;;;;;;;;5063510;28;20037;-76
2022/09/01 05:32:10;;;;;;;10.60;4.20;;;;;;;;;;5060636;28;20040;-76
2022/09/01 05:34:37;;;;;;;8.45;3.78;;;;;;;;;;5053708;28;20021;-74
2022/09/01 05:37:05;;;;;;;7.97;4.15;;;;;;;;;;5074984;28;20054;-76
2022/09/01 05:39:31;;;;;;;6.97;2.88;;;;;;;;;;5079215;28;20037;-79
2022/09/01 05:41:58;;;;;;;9.20;3.25;;;;;;;;;;5060314;28;20033;-74
2022/09/01 05:44:24;;;;;;;7.03;2.72;;;;;;;;;;5060812;28;20013;-78
2022/09/01 05:46:51;;;;;;;10.98;2.30;;;;;;;;;;5079345;28;20028;-78
2022/09/01 05:49:18;;;;;;;6.82;3.47;;;;;;;;;;5078000;28;20048;-75
2022/09/01 05:51:48;;;;;;;6.82;3.55;;;;;;;;;;5075902;28;20200;-76
2022/09/01 05:54:15;;;;;;;6.35;3.10;;;;;;;;;;5074518;28;20024;-77
2022/09/01 05:56:41;;;;;;;6.18;2.92;;;;;;;;;;5059267;28;20052;-77
2022/09/01 05:59:10;;;;;;;6.70;2.70;;;;;;;;;;5076984;28;20033;-77
2022/09/01 06:01:39;;;;;;;7.32;2.38;;;;;;;;;;5072633;28;20013;-75
2022/09/01 06:04:06;;;;;;;5.82;2.40;;;;;;;;;;5070978;28;20013;-75
2022/09/01 06:06:46;;;;;;;6.32;2.40;;;;;;;;;;5050505;28;20025;-76
2022/09/01 06:09:12;;;;;;;7.38;2.53;;;;;;;;;;5047274;28;20048;-82
2022/09/01 06:14:10;;;;;;;9.13;2.70;;;;;;;;;;4952842;28;20051;-71
2022/09/01 06:16:37;;;;;;;10.65;2.45;;;;;;;;;;4954865;28;20109;-71
2022/09/01 06:19:03;;;;;;;5.13;2.65;;;;;;;;;;4954302;28;20035;-72
2022/09/01 06:21:30;;;;;;;6.95;2.03;;;;;;;;;;4954267;28;20435;-71
2022/09/01 06:23:57;;;;;;;5.43;2.10;;;;;;;;;;4954962;28;20023;-70
2022/09/01 06:26:27;;;;;;;6.45;2.00;;;;;;;;;;4957205;28;20031;-70
2022/09/01 06:29:02;;;;;;;7.05;2.50;;;;;;;;;;4962899;29;20031;-71
2022/09/01 06:31:32;;;;;;;7.65;2.85;;;;;;;;;;4964094;29;20118;-70
2022/09/01 06:34:00;;;;;;;7.55;2.92;;;;;;;;;;4965735;28;20031;-70
2022/09/01 06:36:26;;;;;;;7.03;2.33;;;;;;;;;;4963723;29;20024;-71
2022/09/01 06:38:53;;;;;;;6.40;2.10;;;;;;;;;;4955786;28;20030;-72
2022/09/01 06:41:22;;;;;;;6.88;1.88;;;;;;;;;;4953212;29;20107;-70
2022/09/01 06:43:48;;;;;;;4.93;2.45;;;;;;;;;;4953001;28;20082;-71
2022/09/01 06:46:16;;;;;;;6.60;2.20;;;;;;;;;;4953997;29;20035;-72
2022/09/01 06:48:45;;;;;;;9.48;3.67;;;;;;;;;;4953417;28;20027;-72
2022/09/01 06:51:12;;;;;;;4.82;2.08;;;;;;;;;;4954388;28;20027;-71
2022/09/01 06:53:38;;;;;;;20.40;3.85;;;;;;;;;;4957113;28;20052;-73
2022/09/01 06:56:04;;;;;;;5.75;1.90;;;;;;;;;;4959429;28;20528;-73
2022/09/01 06:58:30;;;;;;;6.35;1.70;;;;;;;;;;4956310;28;20149;-74
2022/09/01 07:00:56;;;;;;;8.60;1.67;;;;;;;;;;4956494;29;20023;-71
2022/09/01 07:03:23;;;;;;;15.75;5.60;;;;;;;;;;4952884;28;20476;-71
2022/09/01 07:05:50;;;;;;;19.33;12.32;;;;;;;;;;4952533;29;20061;-73
2022/09/01 07:08:18;;;;;;;5.50;1.80;;;;;;;;;;4952297;28;20519;-73
2022/09/01 07:10:46;;;;;;;5.88;1.90;;;;;;;;;;4952008;29;20023;-73
2022/09/01 07:13:19;;;;;;;9.43;2.20;;;;;;;;;;4953458;28;20027;-74
2022/09/01 07:15:48;;;;;;;6.18;1.88;;;;;;;;;;4951857;28;20105;-73
2022/09/01 07:18:16;;;;;;;3.60;2.00;;;;;;;;;;4952433;29;20100;-74
2022/09/01 07:20:42;;;;;;;7.57;2.35;;;;;;;;;;4954512;28;20026;-75
2022/09/01 07:23:08;;;;;;;4.85;1.42;;;;;;;;;;4956226;28;20028;-71
2022/09/01 07:25:37;;;;;;;4.47;1.15;;;;;;;;;;4951687;29;20027;-73
2022/09/01 07:28:04;;;;;;;6.38;1.48;;;;;;;;;;4951024;29;20038;-72
2022/09/01 07:30:30;;;;;;;14.77;1.65;;;;;;;;;;4951494;29;20034;-73
2022/09/01 07:32:56;;;;;;;5.68;2.53;;;;;;;;;;4950093;28;20055;-72
2022/09/01 07:35:23;;;;;;;6.30;2.38;;;;;;;;;;4950860;28;20030;-72
2022/09/01 07:37:50;;;;;;;3.20;1.30;;;;;;;;;;4951289;29;20411;-75
2022/09/01 07:40:19;;;;;;;4.70;1.85;;;;;;;;;;4951141;28;20028;-73
2022/09/01 07:42:46;;;;;;;3.00;1.40;;;;;;;;;;4950947;28;20465;-70
2022/09/01 07:45:14;;;;;;;6.25;1.42;;;;;;;;;;4952658;28;20554;-70
2022/09/01 07:47:41;;;;;;;3.78;1.13;;;;;;;;;;4950944;28;20077;-71
2022/09/01 07:50:09;;;;;;;3.63;1.50;;;;;;;;;;4950555;29;20027;-70
2022/09/01 07:52:41;;;;;;;7.63;0.90;;;;;;;;;;4951412;28;20023;-70
2022/09/01 07:55:12;;;;;;;5.10;1.00;;;;;;;;;;4951655;29;20036;-72
2022/09/01 07:57:41;;;;;;;3.55;1.73;;;;;;;;;;4950610;28;20057;-72
2022/09/01 08:00:07;;;;;;;14.65;1.95;;;;;;;;;;4952428;29;20023;-68
2022/09/01 08:02:34;;;;;;;3.03;1.20;;;;;;;;;;4951713;28;20035;-71
2022/09/01 08:05:00;;;;;;;3.42;1.10;;;;;;;;;;4951679;29;20023;-70
2022/09/01 08:07:26;;;;;;;5.32;1.10;;;;;;;;;;4952013;29;20669;-70
2022/09/01 08:09:52;;;;;;;3.10;1.13;;;;;;;;;;4952277;29;20023;-71
2022/09/01 08:12:18;;;;;;;5.30;1.00;;;;;;;;;;4950978;28;20442;-70
2022/09/01 08:14:45;;;;;;;4.57;0.85;;;;;;;;;;4951553;28;20034;-70
2022/09/01 08:17:11;;;;;;;2.53;1.00;;;;;;;;;;4951274;29;20028;-70
2022/09/01 08:19:37;;;;;;;4.47;1.08;;;;;;;;;;4951560;28;20031;-70
2022/09/01 08:22:03;;;;;;;2.58;1.10;;;;;;;;;;4951266;28;20089;-71
2022/09/01 08:24:29;;;;;;;3.03;1.40;;;;;;;;;;4951498;29;20551;-70
2022/09/01 08:26:55;;;;;;;0.88;0.65;;;;;;;;;;4949786;28;20037;-70
2022/09/01 08:29:22;;;;;;;3.65;1.10;;;;;;;;;;4952341;29;20090;-69
2022/09/01 08:31:47;;;;;;;2.08;0.90;;;;;;;;;;4953045;29;20031;-69
2022/09/01 08:34:15;;;;;;;2.15;0.80;;;;;;;;;;4952021;29;20586;-70
2022/09/01 08:36:41;;;;;;;5.80;1.00;;;;;;;;;;4949879;29;20038;-70
2022/09/01 08:39:07;;;;;;;3.58;0.75;;;;;;;;;;4953433;29;20050;-70
2022/09/01 08:41:52;;;;;;;1.52;0.80;;;;;;;;;;4955235;28;20035;-71
2022/09/01 08:44:21;;;;;;;2.78;0.93;;;;;;;;;;4957010;29;20059;-71
2022/09/01 08:46:48;;;;;;;6.78;0.80;;;;;;;;;;4951016;29;20128;-71
2022/09/01 08:49:20;;;;;;;5.07;1.27;;;;;;;;;;4951390;28;20054;-71
2022/09/01 08:51:56;;;;;;;3.28;1.20;;;;;;;;;;4955798;28;20087;-71
2022/09/01 08:54:24;;;;;;;8.52;1.05;;;;;;;;;;4960578;29;20024;-71
2022/09/01 08:56:55;;;;;;;1.10;0.73;;;;;;;;;;4963171;28;20034;-70
2022/09/01 08:59:21;;;;;;;4.07;1.17;;;;;;;;;;4965743;29;20028;-73
2022/09/01 09:01:57;;;;;;;1.73;1.05;;;;;;;;;;4964979;28;20023;-72
2022/09/01 09:04:37;;;;;;;4.30;0.85;;;;;;;;;;4957795;28;20028;-70
2022/09/01 09:07:11;;;;;;;5.15;1.42;;;;;;;;;;4957007;28;20088;-70
2022/09/01 09:09:42;;;;;;;4.65;1.60;;;;;;;;;;4955430;28;20028;-70
2022/09/01 09:12:14;;;;;;;2.78;0.70;;;;;;;;;;4952328;28;20035;-70
2022/09/01 09:15:06;;;;;;;1.15;0.80;;;;;;;;;;4952323;29;20077;-71
2022/09/01 09:17:39;;;;;;;1.25;0.60;;;;;;;;;;4951059;28;20063;-70
2022/09/01 09:20:05;;;;;;;1.27;0.60;;;;;;;;;;4950805;28;20028;-69
2022/09/01 09:22:32;;;;;;;1.92;0.70;;;;;;;;;;4950549;28;20027;-69
2022/09/01 09:25:08;;;;;;;1.00;0.70;;;;;;;;;;4950662;29;20111;-71
2022/09/01 09:27:41;;;;;;;1.00;0.77;;;;;;;;;;4951144;28;20035;-71
2022/09/01 09:30:11;;;;;;;5.03;0.77;;;;;;;;;;4950474;29;20106;-71
2022/09/01 09:32:54;;;;;;;6.97;1.00;;;;;;;;;;4952173;28;20028;-71
2022/09/01 09:35:20;;;;;;;3.40;0.77;;;;;;;;;;4951370;28;20464;-71
2022/09/01 09:37:46;;;;;;;2.72;0.75;;;;;;;;;;4952893;28;20107;-70
2022/09/01 09:40:14;;;;;;;1.25;0.70;;;;;;;;;;4955324;28;20032;-70
2022/09/01 09:42:42;;;;;;;1.95;0.95;;;;;;;;;;4951520;28;20051;-70
2022/09/01 09:45:20;;;;;;;0.75;0.57;;;;;;;;;;4952783;28;20028;-71
2022/09/01 09:47:46;;;;;;;4.38;0.90;;;;;;;;;;4954749;28;20066;-70
2022/09/01 09:50:16;;;;;;;2.72;0.73;;;;;;;;;;4958959;28;20027;-71
2022/09/01 09:52:44;;;;;;;1.50;0.82;;;;;;;;;;4960357;28;20023;-71
2022/09/01 09:55:21;;;;;;;4.25;0.73;;;;;;;;;;4952587;28;20047;-71
2022/09/01 09:57:48;;;;;;;1.65;0.57;;;;;;;;;;4953873;29;20321;-73
2022/09/01 10:00:25;;;;;;;2.78;1.50;;;;;;;;;;4954305;28;20383;-70
2022/09/01 10:02:53;;;;;;;4.75;0.98;;;;;;;;;;4954503;28;20494;-72
2022/09/01 10:05:22;;;;;;;1.40;0.75;;;;;;;;;;4954841;29;20029;-70
2022/09/01 10:07:49;;;;;;;3.47;1.13;;;;;;;;;;4954418;28;20073;-72
2022/09/01 10:10:27;;;;;;;5.40;0.60;;;;;;;;;;4955084;28;20478;-72
2022/09/01 10:12:53;;;;;;;1.52;0.77;;;;;;;;;;4953308;28;20035;-71
2022/09/01 10:15:20;;;;;;;1.25;0.73;;;;;;;;;;4953255;29;20141;-72
2022/09/01 10:17:47;;;;;;;5.38;0.70;;;;;;;;;;4953753;28;20098;-71
2022/09/01 10:20:20;;;;;;;1.95;0.70;;;;;;;;;;4953998;29;20077;-72
2022/09/01 10:22:46;;;;;;;4.72;0.80;;;;;;;;;;4953301;28;20023;-72
2022/09/01 10:25:33;;;;;;;6.07;1.90;;;;;;;;;;4953449;28;20032;-71
2022/09/01 10:28:12;;;;;;;1.83;1.00;;;;;;;;;;4953558;29;20023;-71
2022/09/01 10:30:43;;;;;;;2.00;0.70;;;;;;;;;;4953027;28;20494;-71
2022/09/01 10:33:09;;;;;;;5.18;2.28;;;;;;;;;;4953848;28;20019;-70
2022/09/01 10:35:37;;;;;;;4.38;1.50;;;;;;;;;;4953492;29;20106;-71
2022/09/01 10:38:05;;;;;;;5.10;0.90;;;;;;;;;;4956319;28;20034;-72
2022/09/01 10:40:34;;;;;;;7.40;1.30;;;;;;;;;;4956023;28;20028;-72
2022/09/01 10:43:20;;;;;;;3.20;1.30;;;;;;;;;;4953221;28;20028;-72
2022/09/01 10:45:46;;;;;;;9.50;3.75;;;;;;;;;;4953263;29;20107;-70
2022/09/01 10:48:24;;;;;;;6.85;1.20;;;;;;;;;;4954193;29;20089;-71
2022/09/01 10:50:52;;;;;;;4.18;2.63;;;;;;;;;;4968132;29;20024;-70
2022/09/01 10:53:33;;;;;;;8.45;1.50;;;;;;;;;;4972019;28;20024;-70
2022/09/01 10:56:10;;;;;;;7.75;2.03;;;;;;;;;;4955159;28;20031;-70
2022/09/01 10:58:47;;;;;;;5.78;0.90;;;;;;;;;;4953240;29;20544;-70
2022/09/01 11:01:13;;;;;;;5.82;1.98;;;;;;;;;;4953493;29;20035;-70
2022/09/01 11:03:49;;;;;;;2.88;1.67;;;;;;;;;;4954756;28;20027;-72
2022/09/01 11:06:43;;;;;;;3.95;0.95;;;;;;;;;;4955109;29;20081;-73
2022/09/01 11:09:19;;;;;;;5.00;1.80;;;;;;;;;;4956796;28;20034;-73
2022/09/01 11:12:05;;;;;;;4.18;1.00;;;;;;;;;;4957072;28;20035;-71
2022/09/01 11:14:34;;;;;;;5.28;1.10;;;;;;;;;;4987182;28;20043;-73
2022/09/01 11:17:15;;;;;;;4.18;1.90;;;;;;;;;;4956782;29;20015;-70
2022/09/01 11:19:44;;;;;;;2.05;0.90;;;;;;;;;;4956465;28;20399;-70
2022/09/01 11:22:16;;;;;;;2.75;1.00;;;;;;;;;;4955701;28;20387;-69
2022/09/01 11:24:43;;;;;;;1.92;0.82;;;;;;;;;;4955498;28;20031;-73
2022/09/01 11:27:10;;;;;;;2.08;1.50;;;;;;;;;;4952374;28;20053;-74
2022/09/01 11:29:53;;;;;;;5.60;1.90;;;;;;;;;;4957489;28;20066;-74
2022/09/01 11:32:20;;;;;;;7.35;2.30;;;;;;;;;;4952541;28;20031;-77
2022/09/01 11:34:47;;;;;;;6.47;1.30;;;;;;;;;;4954651;28;20023;-72
2022/09/01 11:37:19;;;;;;;3.40;1.02;;;;;;;;;;4953731;28;20589;-71
2022/09/01 11:39:50;;;;;;;5.07;0.85;;;;;;;;;;4953993;29;20031;-71
2022/09/01 11:42:23;;;;;;;6.78;1.13;;;;;;;;;;4954347;28;20023;-72
2022/09/01 11:44:56;;;;;;;1.25;0.90;;;;;;;;;;4953377;28;20027;-70
2022/09/01 11:47:32;;;;;;;2.28;0.82;;;;;;;;;;4955650;28;20035;-75
2022/09/01 11:49:59;;;;;;;3.30;1.42;;;;;;;;;;4954548;29;20027;-72
2022/09/01 11:52:28;;;;;;;6.72;1.92;;;;;;;;;;4953076;28;20035;-72
2022/09/01 11:54:56;;;;;;;2.42;0.70;;;;;;;;;;4951837;28;20061;-72
2022/09/01 11:57:24;;;;;;;0.73;0.65;;;;;;;;;;4950774;29;20027;-76
2022/09/01 11:59:51;;;;;;;2.22;0.80;;;;;;;;;;4951290;28;20065;-72
2022/09/01 12:02:28;;;;;;;3.58;1.10;;;;;;;;;;4950930;28;20032;-71
2022/09/01 12:04:55;;;;;;;2.65;1.42;;;;;;;;;;4951200;29;20042;-71
2022/09/01 12:07:42;;;;;;;1.00;0.80;;;;;;;;;;4949800;29;20035;-70
2022/09/01 12:10:16;;;;;;;4.95;0.80;;;;;;;;;;4950955;29;20488;-70
2022/09/01 12:12:42;;;;;;;;;;;;;;;;;;4974216;23;20051;-78
2022/09/01 12:15:17;;;;;;;2.28;0.63;;;;;;;;;;4955693;29;19906;-76
2022/09/01 12:17:43;;;;;;;2.55;1.52;;;;;;;;;;4965347;29;20027;-75
2022/09/01 12:20:37;;;;;;;5.88;0.85;;;;;;;;;;4971377;28;20095;-75
2022/09/01 12:23:03;;;;;;;1.73;0.60;;;;;;;;;;4963420;28;20034;-75
2022/09/01 12:25:31;;;;;;;1.63;0.70;;;;;;;;;;4960692;28;20020;-75
2022/09/01 12:27:59;;;;;;;1.70;0.88;;;;;;;;;;4959726;29;20031;-76
2022/09/01 12:30:26;;;;;;;5.38;1.10;;;;;;;;;;4956640;28;20085;-76
2022/09/01 12:32:52;;;;;;;11.30;1.00;;;;;;;;;;4962034;28;20130;-76
2022/09/01 12:35:23;;;;;;;3.97;1.17;;;;;;;;;;4962206;28;20062;-74
2022/09/01 12:37:51;;;;;;;3.63;0.70;;;;;;;;;;4962906;28;20028;-74
2022/09/01 12:40:21;;;;;;;4.75;0.90;;;;;;;;;;4953560;28;20024;-77
2022/09/01 12:42:51;;;;;;;1.38;0.77;;;;;;;;;;4955829;28;20019;-74
2022/09/01 12:45:35;;;;;;;3.30;0.90;;;;;;;;;;4952015;29;20023;-75
2022/09/01 12:48:01;;;;;;;6.72;0.60;;;;;;;;;;4952632;29;20028;-75
2022/09/01 12:50:27;;;;;;;3.28;0.77;;;;;;;;;;4951690;28;20046;-75
2022/09/01 12:52:58;;;;;;;3.05;0.90;;;;;;;;;;4949709;28;20081;-75
2022/09/01 12:55:25;;;;;;;8.02;3.13;;;;;;;;;;4950941;28;20036;-74
2022/09/01 12:57:52;;;;;;;2.78;1.42;;;;;;;;;;4953447;28;20361;-78
2022/09/01 13:00:30;;;;;;;2.75;0.90;;;;;;;;;;4950410;29;20062;-74
2022/09/01 13:03:02;;;;;;;1.02;0.68;;;;;;;;;;4950911;28;20019;-75
2022/09/01 13:05:35;;;;;;;10.43;1.00;;;;;;;;;;4951379;28;20361;-75
2022/09/01 13:08:02;;;;;;;3.30;0.63;;;;;;;;;;4951402;28;20047;-75
2022/09/01 13:10:40;;;;;;;1.60;0.80;;;;;;;;;;4950541;28;20050;-76
2022/09/01 13:13:07;;;;;;;2.65;0.90;;;;;;;;;;4950864;28;20361;-75
2022/09/01 13:15:34;;;;;;;1.23;0.60;;;;;;;;;;4949812;28;20437;-74
2022/09/01 13:18:00;;;;;;;2.47;0.88;;;;;;;;;;4951589;28;20032;-76
2022/09/01 13:20:26;;;;;;;2.63;0.77;;;;;;;;;;4956112;29;20177;-75
2022/09/01 13:22:53;;;;;;;3.90;1.05;;;;;;;;;;4970359;28;20031;-74
2022/09/01 13:25:20;;;;;;;3.50;0.82;;;;;;;;;;4965317;28;20102;-74
2022/09/01 13:27:46;;;;;;;2.90;0.80;;;;;;;;;;4955702;28;20037;-75
2022/09/01 13:30:16;;;;;;;4.57;1.00;;;;;;;;;;4954024;29;20076;-75
2022/09/01 13:32:43;;;;;;;2.58;0.95;;;;;;;;;;4954662;28;20035;-73
2022/09/01 13:35:09;;;;;;;1.90;0.90;;;;;;;;;;4954692;29;20047;-73
2022/09/01 13:37:35;;;;;;;3.30;0.98;;;;;;;;;;4967259;29;20031;-72
2022/09/01 13:40:02;;;;;;;2.28;0.70;;;;;;;;;;4956696;29;20083;-75
2022/09/01 13:42:28;;;;;;;3.80;0.70;;;;;;;;;;4952417;28;20036;-73
2022/09/01 13:44:53;;;;;;;4.65;1.08;;;;;;;;;;4952855;28;20038;-74
2022/09/01 13:47:20;;;;;;;3.97;1.00;;;;;;;;;;4953823;28;20110;-75
2022/09/01 13:49:46;;;;;;;10.13;0.90;;;;;;;;;;4954342;28;20027;-76
2022/09/01 13:52:12;;;;;;;0.98;0.60;;;;;;;;;;4954690;28;20102;-75
2022/09/01 13:54:38;;;;;;;4.32;0.80;;;;;;;;;;4955232;28;20096;-75
2022/09/01 13:57:04;;;;;;;3.85;0.90;;;;;;;;;;4954485;28;20460;-74
2022/09/01 13:59:31;;;;;;;4.25;0.70;;;;;;;;;;4954105;28;20554;-74
2022/09/01 14:01:57;;;;;;;0.73;0.60;;;;;;;;;;4954018;28;20510;-74
2022/09/01 14:04:23;;;;;;;2.90;0.57;;;;;;;;;;4955428;28;20305;-75
2022/09/01 14:06:49;;;;;;;2.30;0.90;;;;;;;;;;4957932;28;20027;-76
2022/09/01 14:09:15;;;;;;;3.85;1.00;;;;;;;;;;4964463;28;20077;-75
2022/09/01 14:11:41;;;;;;;4.53;0.85;;;;;;;;;;4961761;28;20062;-77
2022/09/01 14:14:07;;;;;;;2.53;0.95;;;;;;;;;;4954128;28;20499;-76
2022/09/01 14:16:33;;;;;;;1.35;0.73;;;;;;;;;;4955550;28;20078;-76
2022/09/01 14:18:59;;;;;;;5.80;1.88;;;;;;;;;;4955929;28;20049;-75
2022/09/01 14:21:25;;;;;;;4.50;1.20;;;;;;;;;;4957235;28;20036;-75
2022/09/01 14:23:52;;;;;;;3.72;2.45;;;;;;;;;;4965256;28;20031;-74
2022/09/01 14:26:18;;;;;;;5.72;2.67;;;;;;;;;;4970091;28;20035;-75
2022/09/01 14:28:46;;;;;;;2.35;1.17;;;;;;;;;;4969924;28;20043;-74
2022/09/01 14:31:13;;;;;;;2.38;0.75;;;;;;;;;;4967850;28;20027;-75
2022/09/01 14:33:39;;;;;;;1.40;0.73;;;;;;;;;;4968097;28;20091;-75
2022/09/01 14:36:06;;;;;;;2.28;1.42;;;;;;;;;;4959036;28;20027;-75
2022/09/01 14:38:33;;;;;;;5.03;1.67;;;;;;;;;;4951917;28;20055;-74
2022/09/01 14:40:59;;;;;;;3.47;1.20;;;;;;;;;;4954269;28;20387;-75
2022/09/01 14:43:25;;;;;;;3.10;0.90;;;;;;;;;;4953085;28;20031;-75
2022/09/01 14:46:04;;;;;;;4.40;1.00;;;;;;;;;;4952714;28;20027;-76
2022/09/01 14:48:30;;;;;;;3.63;0.90;;;;;;;;;;4953558;28;20051;-75
2022/09/01 14:50:56;;;;;;;4.35;1.00;;;;;;;;;;4953634;28;20120;-75
2022/09/01 14:53:22;;;;;;;1.65;0.90;;;;;;;;;;4959133;28;20023;-76
2022/09/01 14:55:48;;;;;;;2.78;1.17;;;;;;;;;;4952494;28;20604;-75
2022/09/01 14:58:15;;;;;;;3.67;1.23;;;;;;;;;;4959481;28;20244;-74
2022/09/01 15:00:42;;;;;;;3.33;1.20;;;;;;;;;;4962521;28;20024;-75
2022/09/01 15:03:09;;;;;;;4.68;1.20;;;;;;;;;;4962830;28;20023;-75